Time;durP1;ratioP1;P1;durP2;ratioP2;P2;SDS_P1;SDS_P2;PMS_P1;PMS_P2;Temp;Humidity;BMP_temperature;BMP_pressure;BME280_temperature;BME280_humidity;BME280_pressure;Samples;Min_cycle;Max_cycle;Signal;HPM_P1;HPM_P2
2022/02/06 00:00:39;;;;;;;18.98;7.75;;;;;;;2.08;55.25;100686.09;4375568;32;34796;-83
2022/02/06 00:03:08;;;;;;;23.00;8.82;;;;;;;1.99;55.49;100694.75;4376246;32;34885;-83
2022/02/06 00:05:36;;;;;;;22.55;8.25;;;;;;;2.12;55.00;100687.87;4363900;32;33638;-83
2022/02/06 00:08:09;;;;;;;20.02;8.45;;;;;;;2.25;54.45;100684.47;4374971;32;34233;-83
2022/02/06 00:10:38;;;;;;;18.98;7.68;;;;;;;2.16;54.77;100677.47;4361936;32;33339;-82
2022/02/06 00:13:06;;;;;;;21.17;8.68;;;;;;;2.20;54.30;100679.22;4375889;32;32835;-83
2022/02/06 00:15:34;;;;;;;20.90;8.45;;;;;;;2.12;54.59;100678.31;4375717;32;32633;-83
2022/02/06 00:18:02;;;;;;;19.37;7.82;;;;;;;2.07;54.64;100674.81;4363328;32;33407;-83
2022/02/06 00:20:37;;;;;;;16.45;7.55;;;;;;;2.09;54.60;100667.91;4363010;32;33921;-83
2022/02/06 00:23:10;;;;;;;18.45;7.10;;;;;;;2.19;54.16;100669.69;4363049;32;32918;-83
2022/02/06 00:41:10;;;;;;;18.87;8.10;;;;;;;2.04;54.62;100667.87;4365944;32;32339;-83
2022/02/06 00:43:38;;;;;;;19.25;6.57;;;;;;;1.41;57.45;100703.03;4352517;32;33606;-83
2022/02/06 00:46:08;;;;;;;16.02;7.65;;;;;;;1.56;57.43;100707.50;4376052;32;33631;-83
2022/02/06 00:48:40;;;;;;;20.25;8.85;;;;;;;1.90;56.21;100692.97;4362957;32;34528;-83
2022/02/06 00:51:16;;;;;;;25.62;7.62;;;;;;;1.92;55.87;100691.25;4363365;32;32124;-83
2022/02/06 00:53:44;;;;;;;16.77;7.90;;;;;;;2.12;54.86;100685.25;4376059;32;33803;-83
2022/02/06 00:56:12;;;;;;;23.65;7.80;;;;;;;1.74;56.25;100678.97;4363781;32;33573;-83
2022/02/06 00:58:39;;;;;;;11.40;5.65;;;;;;;1.65;56.89;100668.50;4362873;32;33689;-83
2022/02/06 01:01:07;;;;;;;15.48;6.12;;;;;;;1.99;55.84;100674.81;4363521;32;32462;-83
2022/02/06 01:03:35;;;;;;;17.33;6.50;;;;;;;2.07;55.74;100663.53;4375811;32;32953;-83
2022/02/06 01:06:06;;;;;;;14.52;6.55;;;;;;;2.11;55.37;100655.75;4376157;32;34364;-83
2022/02/06 01:08:34;;;;;;;18.30;6.68;;;;;;;1.98;55.48;100653.94;4363401;32;32974;-83
2022/02/06 01:11:06;;;;;;;11.18;6.03;;;;;;;2.08;54.53;100650.50;4375858;32;34593;-83
2022/02/06 01:13:45;;;;;;;14.38;5.30;;;;;;;1.61;55.72;100658.94;4356303;32;34758;-83
2022/02/06 01:16:22;;;;;;;12.45;4.80;;;;;;;1.52;56.06;100658.91;4376058;32;34499;-83
2022/02/06 01:18:57;;;;;;;18.55;6.12;;;;;;;1.93;55.31;100653.91;4362303;32;32538;-82
2022/02/06 01:21:50;;;;;;;12.80;5.90;;;;;;;2.01;54.44;100646.16;4363201;32;33859;-83
2022/02/06 01:26:50;;;;;;;11.10;4.55;;;;;;;1.40;56.29;100640.59;4362953;32;33489;-83
2022/02/06 01:32:03;;;;;;;13.62;4.97;;;;;;;1.87;54.91;100635.66;4372858;32;32380;-84
2022/02/06 01:40:00;;;;;;;13.13;4.72;;;;;;;1.60;55.47;100633.75;4374454;32;32558;-83
2022/02/06 01:42:41;;;;;;;14.10;5.30;;;;;;;1.48;56.29;100633.72;4349060;32;32850;-83
2022/02/06 02:12:50;;;;;;;12.40;5.10;;;;;;;1.46;55.60;100580.75;4360212;32;33261;-83
2022/02/06 02:26:27;;;;;;;12.32;4.78;;;;;;;1.09;56.19;100585.72;4361806;32;33782;-83
2022/02/06 02:31:27;;;;;;;10.57;5.32;;;;;;;0.70;57.68;100574.16;4373577;32;33685;-84
2022/02/06 02:47:52;;;;;;;11.18;5.10;;;;;;;0.99;56.82;100583.91;4374381;32;34387;-83
2022/02/06 02:50:23;;;;;;;9.57;4.75;;;;;;;0.69;57.53;100572.41;4361736;32;32930;-83
2022/02/06 03:01:00;;;;;;;10.75;4.07;;;;;;;0.89;56.78;100563.91;4362422;32;33866;-83
2022/02/06 03:03:31;;;;;;;7.90;4.17;;;;;;;1.05;56.28;100557.97;4374642;32;33059;-83
2022/02/06 03:06:01;;;;;;;9.23;3.75;;;;;;;1.21;55.57;100562.41;4351348;32;32507;-82
2022/02/06 03:08:30;;;;;;;9.30;4.20;;;;;;;0.64;57.68;100566.31;4363229;32;33458;-82
2022/02/06 03:11:00;;;;;;;15.18;4.55;;;;;;;0.76;57.42;100555.16;4350012;32;33549;-82
2022/02/06 03:13:37;;;;;;;10.75;4.62;;;;;;;0.59;56.69;100557.59;4361084;32;32697;-82
2022/02/06 03:16:19;;;;;;;15.02;4.20;;;;;;;0.64;57.21;100553.31;4345408;32;32445;-83
2022/02/06 03:19:10;;;;;;;16.98;5.82;;;;;;;0.83;56.47;100550.88;4359357;32;34683;-82
2022/02/06 03:21:39;;;;;;;10.98;5.47;;;;;;;0.83;56.52;100550.88;4352653;32;35344;-82
2022/02/06 03:26:46;;;;;;;14.35;5.43;;;;;;;0.91;56.52;100564.81;4373733;32;34765;-82
2022/02/06 03:29:16;;;;;;;11.02;5.80;;;;;;;0.99;56.45;100560.50;4354204;32;33186;-82
2022/02/06 03:31:45;;;;;;;13.52;5.45;;;;;;;0.80;56.92;100564.69;4361595;32;33916;-82
2022/02/06 03:34:12;;;;;;;17.08;7.05;;;;;;;0.60;57.06;100548.94;4362077;32;32306;-82
2022/02/06 03:36:40;;;;;;;7.82;4.45;;;;;;;0.64;56.93;100547.25;4350806;32;33358;-82
2022/02/06 03:39:09;;;;;;;13.02;5.50;;;;;;;0.57;57.12;100546.34;4349998;32;32962;-83
2022/02/06 03:41:54;;;;;;;9.80;4.87;;;;;;;0.30;58.25;100559.06;4374816;32;33687;-83
2022/02/06 03:44:28;;;;;;;12.05;5.15;;;;;;;0.53;57.69;100551.50;4349653;32;32247;-82
2022/02/06 03:47:03;;;;;;;11.30;5.68;;;;;;;0.60;57.23;100537.69;4363084;32;33832;-83
2022/02/06 03:49:44;;;;;;;8.15;4.18;;;;;;;0.72;56.85;100533.47;4363132;32;33707;-83
2022/02/06 03:52:26;;;;;;;10.25;4.70;;;;;;;0.67;56.72;100531.69;4374378;32;34911;-83
2022/02/06 03:54:54;;;;;;;14.38;5.65;;;;;;;0.57;57.18;100529.84;4361337;32;34269;-83
2022/02/06 03:57:22;;;;;;;8.85;4.60;;;;;;;0.60;56.86;100522.94;4375135;32;32655;-82
2022/02/06 03:59:51;;;;;;;17.23;6.07;;;;;;;0.44;57.46;100524.56;4350546;32;33908;-83
2022/02/06 04:02:19;;;;;;;10.88;5.25;;;;;;;0.58;56.89;100523.81;4361933;32;33761;-82
2022/02/06 04:04:49;;;;;;;14.90;5.80;;;;;;;0.73;56.41;100522.19;4361375;32;31978;-83
2022/02/06 04:07:17;;;;;;;11.02;4.95;;;;;;;0.45;57.67;100525.41;4370259;32;33893;-83
2022/02/06 04:09:52;;;;;;;12.63;5.68;;;;;;;0.60;57.36;100516.88;4350789;32;33365;-83
2022/02/06 04:12:23;;;;;;;16.45;5.65;;;;;;;0.60;57.13;100512.56;4362189;32;34336;-83
2022/02/06 04:14:57;;;;;;;12.05;5.95;;;;;;;0.25;58.11;100523.50;4361850;32;34314;-83
2022/02/06 04:17:27;;;;;;;14.05;6.28;;;;;;;0.36;57.71;100508.03;4351923;32;33128;-83
2022/02/06 04:20:33;;;;;;;16.27;6.60;;;;;;;0.27;58.06;100507.06;4362268;32;33538;-83
2022/02/06 04:23:00;;;;;;;14.20;6.25;;;;;;;0.40;57.53;100503.72;4374156;32;34211;-83
2022/02/06 04:25:28;;;;;;;9.38;4.50;;;;;;;0.48;57.04;100496.88;4374406;32;34401;-83
2022/02/06 04:27:56;;;;;;;10.23;4.87;;;;;;;0.53;56.61;100484.78;4361927;32;33410;-83
2022/02/06 04:30:23;;;;;;;10.32;5.22;;;;;;;0.36;56.96;100476.84;4350407;32;33843;-83
2022/02/06 04:32:53;;;;;;;12.82;5.62;;;;;;;0.41;57.11;100476.88;4374603;32;33650;-83
2022/02/06 04:35:24;;;;;;;12.37;5.00;;;;;;;0.51;56.87;100483.88;4361807;32;34388;-83
2022/02/06 04:40:37;;;;;;;13.35;5.00;;;;;;;0.36;57.19;100476.84;4360576;32;33601;-84
2022/02/06 05:13:21;;;;;;;8.20;4.40;;;;;;;0.09;57.63;100469.66;4366746;32;32775;-83
2022/02/06 05:34:20;;;;;;;6.25;4.03;;;;;;;-0.23;57.95;100468.50;4356306;32;33827;-83
2022/02/06 05:36:48;;;;;;;12.48;5.32;;;;;;;-0.11;58.28;100463.41;4356501;32;34769;-82
2022/02/06 05:39:15;;;;;;;13.40;6.10;;;;;;;0.16;57.72;100458.50;4357586;32;32229;-83
2022/02/06 05:41:43;;;;;;;12.23;5.50;;;;;;;0.24;58.07;100467.22;4358326;32;33803;-82
2022/02/06 05:44:11;;;;;;;14.98;5.15;;;;;;;0.02;58.88;100464.41;4358877;32;33750;-82
2022/02/06 05:46:38;;;;;;;9.30;5.35;;;;;;;0.08;58.61;100467.94;4358285;32;34276;-82
2022/02/06 05:49:10;;;;;;;10.10;5.43;;;;;;;0.06;58.54;100467.06;4341311;32;33588;-83
2022/02/06 05:51:38;;;;;;;9.13;5.07;;;;;;;0.00;58.42;100456.63;4369016;32;33174;-82
2022/02/06 05:54:06;;;;;;;11.40;6.00;;;;;;;0.11;58.18;100467.09;4366164;32;33662;-82
2022/02/06 05:56:34;;;;;;;11.70;5.55;;;;;;;0.07;58.22;100468.78;4349645;32;33527;-83
2022/02/06 05:59:05;;;;;;;10.55;4.47;;;;;;;0.03;58.53;100464.44;4340091;32;32845;-83
2022/02/06 06:01:32;;;;;;;10.68;6.10;;;;;;;0.21;58.57;100467.19;4366539;32;33940;-84
2022/02/06 06:04:00;;;;;;;8.82;4.82;;;;;;;0.12;58.78;100466.25;4353677;32;32352;-83
2022/02/06 06:06:28;;;;;;;12.93;5.47;;;;;;;0.25;58.20;100462.91;4366111;32;34116;-84
2022/02/06 06:08:55;;;;;;;9.35;4.85;;;;;;;0.07;58.61;100460.13;4341370;32;32676;-84
2022/02/06 06:11:23;;;;;;;8.20;4.82;;;;;;;0.13;58.84;100455.88;4354485;32;34301;-84
2022/02/06 06:13:51;;;;;;;12.07;5.45;;;;;;;0.12;58.75;100450.66;4354857;32;33816;-84
2022/02/06 06:16:18;;;;;;;11.43;5.37;;;;;;;0.24;58.61;100451.66;4354792;32;34681;-84
2022/02/06 06:18:47;;;;;;;11.18;5.93;;;;;;;0.43;58.20;100455.28;4366998;32;33147;-84
2022/02/06 06:21:15;;;;;;;15.55;7.03;;;;;;;0.32;58.58;100454.28;4359680;32;34028;-84
2022/02/06 06:23:43;;;;;;;11.05;5.25;;;;;;;0.23;59.01;100457.69;4355266;32;33947;-84
2022/02/06 06:26:15;;;;;;;10.55;5.32;;;;;;;0.44;58.54;100453.53;4359866;32;33752;-84
2022/02/06 06:28:43;;;;;;;9.75;5.70;;;;;;;0.34;58.85;100451.72;4356621;32;32644;-84
2022/02/06 06:31:10;;;;;;;8.10;4.62;;;;;;;0.48;58.49;100456.16;4341754;32;32279;-84
2022/02/06 06:33:38;;;;;;;10.25;5.68;;;;;;;0.53;58.72;100458.81;4356846;32;33411;-84
2022/02/06 06:36:06;;;;;;;11.52;4.70;;;;;;;0.34;59.16;100455.19;4360582;32;34160;-84
2022/02/06 06:38:35;;;;;;;8.38;4.55;;;;;;;0.46;58.80;100447.47;4370469;32;33176;-84
2022/02/06 06:41:03;;;;;;;8.77;5.03;;;;;;;0.24;59.83;100446.47;4357799;32;33123;-84
2022/02/06 06:43:31;;;;;;;8.20;4.80;;;;;;;0.73;58.55;100441.63;4357918;32;34855;-84
2022/02/06 06:45:58;;;;;;;10.45;5.07;;;;;;;0.87;58.10;100444.31;4357253;32;33488;-84
2022/02/06 06:48:26;;;;;;;16.05;5.78;;;;;;;0.75;58.25;100434.69;4360810;32;33244;-82
2022/02/06 06:50:54;;;;;;;15.60;5.07;;;;;;;0.86;58.27;100439.09;4358476;32;33544;-82
2022/02/06 06:53:22;;;;;;;10.88;5.18;;;;;;;1.03;58.07;100434.84;4357060;32;34373;-84
2022/02/06 06:55:57;;;;;;;13.38;5.82;;;;;;;1.05;58.22;100443.53;4355842;32;34036;-84
2022/02/06 06:58:32;;;;;;;11.02;5.50;;;;;;;1.07;58.42;100435.75;4353084;32;33571;-83
2022/02/06 07:03:27;;;;;;;14.15;5.45;;;;;;;1.10;58.56;100421.03;4363970;32;33741;-84
2022/02/06 07:05:56;;;;;;;7.20;4.68;;;;;;;0.91;59.81;100421.78;4369056;32;33900;-81
2022/02/06 07:08:25;;;;;;;11.35;5.55;;;;;;;1.48;58.35;100418.56;4359553;32;33915;-83
2022/02/06 07:10:52;;;;;;;9.02;4.85;;;;;;;1.28;59.01;100421.09;4359524;32;36035;-83
2022/02/06 07:13:23;;;;;;;13.43;5.53;;;;;;;1.58;58.29;100419.47;4355395;32;33408;-83
2022/02/06 07:15:53;;;;;;;9.88;4.25;;;;;;;1.65;58.12;100413.37;4356793;32;34363;-83
2022/02/06 07:18:21;;;;;;;13.93;4.97;;;;;;;1.39;59.36;100407.25;4364153;32;33654;-84
2022/02/06 07:20:49;;;;;;;10.88;5.12;;;;;;;1.34;59.54;100414.19;4353404;32;32760;-84
2022/02/06 07:23:17;;;;;;;12.98;6.22;;;;;;;1.33;59.53;100415.03;4367354;32;34056;-82
2022/02/06 07:25:49;;;;;;;12.65;6.05;;;;;;;1.31;59.91;100407.22;4358201;32;33337;-83
2022/02/06 07:28:19;;;;;;;17.37;5.55;;;;;;;1.66;59.10;100399.53;4366686;32;33647;-82
2022/02/06 07:30:48;;;;;;;13.52;5.90;;;;;;;1.76;59.08;100397.81;4357434;32;34560;-83
2022/02/06 07:33:19;;;;;;;15.82;7.25;;;;;;;2.14;58.25;100400.44;4354753;32;33323;-83
2022/02/06 07:35:49;;;;;;;18.33;8.70;;;;;;;2.24;58.09;100386.53;4360240;32;33355;-84
2022/02/06 07:38:16;;;;;;;21.12;9.30;;;;;;;2.33;58.13;100390.00;4358371;32;32985;-84
2022/02/06 07:40:44;;;;;;;16.20;9.35;;;;;;;2.17;59.12;100395.22;4350041;32;33311;-84
2022/02/06 07:43:13;;;;;;;20.58;11.48;;;;;;;2.20;59.45;100395.22;4350459;32;33855;-83
2022/02/06 07:45:41;;;;;;;25.42;11.93;;;;;;;2.48;58.19;100390.00;4364962;32;34080;-84
2022/02/06 07:48:10;;;;;;;21.62;12.50;;;;;;;2.57;57.84;100395.19;4352872;32;32399;-86
2022/02/06 07:50:38;;;;;;;21.30;9.98;;;;;;;2.59;57.50;100398.66;4361537;32;33432;-86
2022/02/06 07:53:06;;;;;;;20.45;9.77;;;;;;;2.50;57.96;100393.47;4352876;32;34440;-86
2022/02/06 07:55:34;;;;;;;19.12;9.52;;;;;;;2.55;57.92;100399.53;4351656;32;33817;-86
2022/02/06 07:58:02;;;;;;;16.65;9.50;;;;;;;2.69;58.19;100404.72;4359884;32;32616;-86
2022/02/06 08:00:30;;;;;;;17.12;7.97;;;;;;;2.77;57.68;100403.84;4351537;32;33672;-86
2022/02/06 08:02:58;;;;;;;16.08;7.12;;;;;;;2.86;57.93;100402.97;4351438;32;32746;-89
2022/02/06 08:05:27;;;;;;;17.62;7.37;;;;;;;3.04;57.77;100407.25;4336105;32;33865;-86
2022/02/06 08:07:56;;;;;;;9.57;5.12;;;;;;;2.67;59.20;100404.75;4342170;32;33000;-87
2022/02/06 08:10:25;;;;;;;15.13;6.85;;;;;;;2.87;58.76;100401.22;4354126;32;33898;-87
2022/02/06 08:12:55;;;;;;;16.02;7.18;;;;;;;3.19;56.94;100391.53;4353520;32;33347;-86
2022/02/06 08:15:23;;;;;;;11.07;5.55;;;;;;;3.59;56.42;100386.97;4349938;32;33885;-85
2022/02/06 08:17:51;;;;;;;14.60;6.40;;;;;;;3.37;57.51;100389.69;4347949;32;34096;-88
2022/02/06 08:20:20;;;;;;;14.68;6.50;;;;;;;3.57;57.21;100388.72;4366538;32;33056;-85
2022/02/06 08:22:48;;;;;;;18.17;6.75;;;;;;;3.66;57.16;100382.59;4325221;32;35087;-86
2022/02/06 08:25:16;;;;;;;14.57;6.03;;;;;;;3.70;57.11;100373.81;4340055;32;33062;-86
2022/02/06 08:27:44;;;;;;;11.35;5.43;;;;;;;4.15;55.33;100377.00;4350375;32;33425;-86
2022/02/06 08:30:14;;;;;;;13.40;6.60;;;;;;;4.36;55.01;100365.47;4352760;32;34786;-84
2022/02/06 08:32:42;;;;;;;7.82;3.37;;;;;;;4.57;54.31;100361.78;4354059;32;33797;-85
2022/02/06 08:35:10;;;;;;;10.27;3.65;;;;;;;4.48;53.86;100359.28;4338177;32;32686;-85
2022/02/06 08:37:38;;;;;;;8.45;2.67;;;;;;;4.94;52.53;100357.03;4351043;32;33670;-85
2022/02/06 08:40:12;;;;;;;5.18;1.80;;;;;;;5.54;51.56;100346.63;4353170;32;34549;-85
2022/02/06 08:42:42;;;;;;;5.15;2.37;;;;;;;5.24;50.32;100345.28;4336871;32;32387;-85
2022/02/06 08:45:11;;;;;;;4.37;1.55;;;;;;;5.55;48.62;100347.47;4342211;32;33613;-85
2022/02/06 08:47:42;;;;;;;8.48;1.85;;;;;;;5.89;47.57;100338.25;4350299;32;32827;-86
2022/02/06 08:50:11;;;;;;;9.77;3.10;;;;;;;5.75;48.71;100345.44;4355543;32;34203;-85
2022/02/06 08:52:39;;;;;;;18.08;5.05;;;;;;;5.73;48.55;100352.44;4343673;32;34353;-86
2022/02/06 08:55:09;;;;;;;13.93;5.03;;;;;;;6.03;47.14;100345.03;4359014;32;32774;-86
2022/02/06 08:57:43;;;;;;;12.13;4.72;;;;;;;5.90;47.88;100339.97;4344755;32;32237;-86
2022/02/06 09:00:12;;;;;;;17.67;5.40;;;;;;;5.64;48.07;100344.72;4357736;32;34467;-86
2022/02/06 09:02:40;;;;;;;14.02;5.10;;;;;;;6.19;47.24;100346.50;4352360;32;32430;-86
2022/02/06 09:05:08;;;;;;;10.85;5.43;;;;;;;6.22;46.51;100353.44;4354875;32;33116;-86
2022/02/06 09:07:36;;;;;;;15.25;4.47;;;;;;;6.88;44.81;100343.50;4363265;32;33695;-86
2022/02/06 09:10:04;;;;;;;16.50;5.72;;;;;;;6.67;45.50;100344.75;4351665;32;33774;-86
2022/02/06 09:12:35;;;;;;;21.15;6.82;;;;;;;6.43;46.03;100341.72;4348911;32;32605;-86
2022/02/06 09:15:05;;;;;;;15.45;4.28;;;;;;;6.04;46.94;100341.53;4332270;32;32944;-86
2022/02/06 09:17:32;;;;;;;16.52;4.72;;;;;;;5.69;46.84;100329.81;4352976;32;33665;-85
2022/02/06 09:20:00;;;;;;;18.70;5.37;;;;;;;6.16;47.07;100321.19;4361383;32;33366;-84
2022/02/06 09:22:32;;;;;;;13.57;3.95;;;;;;;5.68;47.94;100324.59;4360667;32;33791;-84
2022/02/06 09:25:00;;;;;;;10.82;4.22;;;;;;;5.73;47.07;100326.25;4350907;32;34750;-84
2022/02/06 09:27:28;;;;;;;4.95;2.85;;;;;;;5.66;47.69;100332.50;4359829;32;32995;-85
2022/02/06 09:29:56;;;;;;;10.63;5.28;;;;;;;6.18;46.42;100326.44;4361599;32;33211;-84
2022/02/06 09:37:34;;;;;;;8.10;3.45;;;;;;;6.65;45.93;100312.44;4367227;32;34056;-85
2022/02/06 09:40:04;;;;;;;7.07;3.83;;;;;;;7.17;46.07;100302.63;4353845;32;32541;-85
2022/02/06 09:42:32;;;;;;;5.53;3.05;;;;;;;7.01;45.80;100301.22;4356123;32;32901;-84
2022/02/06 09:45:01;;;;;;;9.52;3.05;;;;;;;7.10;45.55;100301.03;4335830;32;32958;-84
2022/02/06 09:47:30;;;;;;;10.35;3.45;;;;;;;6.70;46.17;100293.97;4353456;32;32591;-84
2022/02/06 09:49:59;;;;;;;7.70;3.30;;;;;;;7.32;45.27;100286.53;4369715;32;33642;-84
2022/02/06 09:52:29;;;;;;;6.65;3.08;;;;;;;7.62;44.25;100284.94;4353660;32;33035;-84
2022/02/06 09:55:06;;;;;;;6.97;2.90;;;;;;;7.24;45.47;100277.94;4352468;32;34067;-83
2022/02/06 09:57:51;;;;;;;5.47;2.65;;;;;;;7.41;44.96;100275.81;4366563;32;33179;-84
2022/02/06 10:00:21;;;;;;;5.95;2.05;;;;;;;7.09;45.02;100271.28;4355906;32;34054;-83
2022/02/06 10:02:55;;;;;;;7.30;2.33;;;;;;;6.53;45.59;100267.19;4366930;32;34139;-83
2022/02/06 10:05:28;;;;;;;8.65;2.20;;;;;;;7.18;44.64;100257.09;4357314;32;36057;-84
2022/02/06 10:08:31;;;;;;;6.70;2.30;;;;;;;7.06;45.08;100262.59;4365432;32;32591;-84
2022/02/06 10:11:03;;;;;;;4.85;2.42;;;;;;;7.25;44.43;100256.03;4358797;32;32967;-84
2022/02/06 10:13:36;;;;;;;5.53;2.35;;;;;;;7.57;44.46;100249.16;4355833;32;32919;-83
2022/02/06 10:16:04;;;;;;;;;;;;;;;7.90;44.35;100240.44;4365236;32;33954;-84
2022/02/06 10:18:32;;;;;;;4.43;2.42;;;;;;;7.30;44.19;100246.28;4341653;32;32886;-84
2022/02/06 10:20:59;;;;;;;4.87;2.33;;;;;;;7.17;46.05;100239.59;4354225;32;32248;-83
2022/02/06 10:23:36;;;;;;;8.60;2.10;;;;;;;7.81;44.16;100230.16;4364742;32;35234;-84
2022/02/06 10:26:19;;;;;;;5.20;2.90;;;;;;;8.16;42.86;100217.84;4358201;32;33757;-84
2022/02/06 10:28:58;;;;;;;4.37;2.55;;;;;;;8.50;43.69;100217.81;4352668;32;32453;-84
2022/02/06 10:31:27;;;;;;;6.03;2.15;;;;;;;8.35;42.27;100200.63;4365184;32;32247;-84
2022/02/06 10:33:55;;;;;;;5.75;2.62;;;;;;;8.55;42.04;100199.25;4352208;32;34646;-84
2022/02/06 10:36:25;;;;;;;6.28;2.62;;;;;;;8.44;42.41;100197.78;4354015;32;34187;-84
2022/02/06 10:39:01;;;;;;;7.22;2.35;;;;;;;8.85;40.51;100189.56;4367878;32;34072;-84
2022/02/06 10:41:29;;;;;;;5.80;2.67;;;;;;;8.81;41.45;100180.91;4339432;32;33153;-84
2022/02/06 10:44:07;;;;;;;4.05;1.77;;;;;;;9.16;40.97;100176.31;4354555;32;33578;-84
2022/02/06 10:46:46;;;;;;;2.50;1.33;;;;;;;9.18;40.30;100174.50;4366261;32;34068;-84
2022/02/06 10:49:15;;;;;;;2.70;1.52;;;;;;;8.96;40.32;100172.53;4354209;32;34326;-84
2022/02/06 10:51:51;;;;;;;4.18;1.90;;;;;;;9.34;40.05;100159.91;4341667;32;32169;-84
2022/02/06 10:54:28;;;;;;;2.40;1.50;;;;;;;8.75;40.42;100157.41;4365673;32;32897;-84
2022/02/06 10:57:06;;;;;;;5.40;1.58;;;;;;;8.76;40.61;100147.72;4364480;32;32120;-84
2022/02/06 11:00:03;;;;;;;2.40;1.25;;;;;;;8.76;40.72;100140.69;4353885;32;33017;-84
2022/02/06 11:02:56;;;;;;;3.25;1.48;;;;;;;9.23;40.27;100130.41;4352827;32;33105;-85
2022/02/06 11:05:33;;;;;;;2.67;1.37;;;;;;;9.21;39.37;100129.63;4360686;32;33529;-85
2022/02/06 11:08:03;;;;;;;3.65;1.35;;;;;;;9.96;38.86;100114.69;4359932;32;34185;-85
2022/02/06 11:10:32;;;;;;;7.05;2.10;;;;;;;9.53;39.09;100107.44;4371810;32;33467;-85
2022/02/06 11:13:05;;;;;;;3.30;1.40;;;;;;;10.17;38.84;100093.72;4344092;32;32964;-85
2022/02/06 11:15:34;;;;;;;2.83;1.62;;;;;;;9.94;38.03;100087.50;4352332;32;32372;-85
2022/02/06 11:18:14;;;;;;;5.65;2.33;;;;;;;9.98;38.18;100083.84;4342031;32;34120;-85
2022/02/06 11:21:06;;;;;;;2.42;1.40;;;;;;;10.49;38.08;100082.84;4355055;32;32017;-85
2022/02/06 11:23:37;;;;;;;3.37;1.40;;;;;;;9.72;38.81;100065.47;4367146;32;33789;-85
2022/02/06 11:26:07;;;;;;;3.72;1.80;;;;;;;9.85;39.04;100061.47;4355647;32;35790;-85
2022/02/06 11:28:34;;;;;;;2.70;1.42;;;;;;;10.23;37.98;100046.84;4353421;32;33696;-84
2022/02/06 11:31:25;;;;;;;5.03;2.10;;;;;;;10.74;37.06;100053.69;4368629;32;32589;-84
2022/02/06 11:33:53;;;;;;;4.68;1.80;;;;;;;10.23;37.92;100035.44;4346238;32;33486;-84
2022/02/06 11:45:29;;;;;;;4.85;1.65;;;;;;;10.14;37.81;100019.94;4367451;32;33615;-84
2022/02/06 11:48:02;;;;;;;3.10;1.70;;;;;;;10.05;38.30;100010.59;4356927;32;33279;-84
2022/02/06 11:50:32;;;;;;;1.67;1.02;;;;;;;10.35;37.76;100013.87;4342674;32;33458;-84
2022/02/06 11:53:04;;;;;;;4.68;2.28;;;;;;;10.33;37.90;100005.16;4346153;32;33490;-84
2022/02/06 11:55:43;;;;;;;3.33;1.00;;;;;;;10.80;37.39;99998.88;4341929;32;33028;-84
2022/02/06 11:58:25;;;;;;;3.85;1.33;;;;;;;11.09;37.35;99989.72;4377794;32;33757;-84
2022/02/06 12:01:16;;;;;;;2.60;1.60;;;;;;;11.14;36.68;99982.44;4364499;32;32714;-85
2022/02/06 12:03:47;;;;;;;2.37;1.80;;;;;;;10.68;37.58;99972.06;4359856;32;33784;-85
2022/02/06 12:06:14;;;;;;;5.05;1.80;;;;;;;10.83;37.30;99970.56;4366118;32;32419;-84
2022/02/06 12:09:03;;;;;;;3.05;1.40;;;;;;;10.97;37.38;99962.06;4367302;32;33144;-84
2022/02/06 12:11:34;;;;;;;3.55;1.52;;;;;;;11.58;36.74;99953.19;4328754;32;33643;-84
2022/02/06 12:14:10;;;;;;;2.35;1.40;;;;;;;11.90;36.30;99939.37;4358121;32;32921;-84
2022/02/06 12:16:45;;;;;;;3.53;2.08;;;;;;;11.73;36.40;99939.28;4359855;32;34258;-84
2022/02/06 12:19:31;;;;;;;3.08;1.80;;;;;;;11.60;36.41;99932.84;4360416;32;34770;-84
2022/02/06 12:22:36;;;;;;;3.60;2.00;;;;;;;10.82;38.18;99921.28;4358797;32;33396;-84
2022/02/06 12:25:24;;;;;;;4.62;2.37;;;;;;;10.63;38.68;99913.28;4371973;32;33238;-84
2022/02/06 12:28:16;;;;;;;4.07;1.70;;;;;;;10.51;39.03;99898.81;4354917;32;32999;-84
2022/02/06 12:30:45;;;;;;;6.45;2.50;;;;;;;11.37;37.97;99889.78;4359880;32;35411;-84
2022/02/06 12:33:27;;;;;;;6.00;2.33;;;;;;;11.02;38.05;99892.22;4360381;32;34202;-84
2022/02/06 12:38:44;;;;;;;3.28;1.83;;;;;;;11.08;38.11;99882.31;4358798;32;33748;-85
2022/02/06 12:41:25;;;;;;;3.70;1.90;;;;;;;11.19;38.19;99872.09;4357359;32;34423;-84
2022/02/06 12:44:03;;;;;;;6.95;2.55;;;;;;;11.28;38.29;99869.06;4356948;32;33293;-85
2022/02/06 12:46:31;;;;;;;6.07;2.15;;;;;;;10.86;39.65;99877.97;4359044;32;33542;-84
2022/02/06 12:49:03;;;;;;;3.50;2.45;;;;;;;10.69;39.94;99877.84;4352397;32;35520;-84
2022/02/06 12:51:35;;;;;;;7.18;2.60;;;;;;;11.34;38.80;99871.41;4344332;32;34691;-84
2022/02/06 12:54:08;;;;;;;;;;;;;;;11.15;39.15;99863.44;4356275;32;32776;-84
2022/02/06 12:56:37;;;;;;;5.22;2.50;;;;;;;10.86;39.93;99861.25;4355883;32;33115;-84
2022/02/06 12:59:05;;;;;;;3.37;2.47;;;;;;;11.04;39.67;99857.81;4358304;32;33599;-84
2022/02/06 13:01:40;;;;;;;4.03;2.05;;;;;;;11.16;40.03;99836.13;4351823;32;34333;-84
2022/02/06 13:04:11;;;;;;;4.20;2.50;;;;;;;10.86;40.37;99827.75;4356764;32;32173;-84
2022/02/06 13:06:43;;;;;;;3.65;2.50;;;;;;;11.77;39.01;99827.09;4358228;32;33099;-84
2022/02/06 13:09:25;;;;;;;6.50;2.55;;;;;;;11.97;38.74;99816.44;4353498;32;33937;-84
2022/02/06 13:12:06;;;;;;;4.07;2.40;;;;;;;11.39;39.73;99824.47;4355225;32;32759;-84
2022/02/06 13:18:11;;;;;;;3.90;2.28;;;;;;;12.01;38.42;99804.78;4363009;32;33622;-84
2022/02/06 13:25:42;;;;;;;4.18;2.33;;;;;;;11.46;40.16;99780.97;4366247;32;32446;-84
2022/02/06 13:33:40;;;;;;;4.62;2.75;;;;;;;11.53;40.08;99774.44;4370651;32;36671;-84
2022/02/06 13:38:38;;;;;;;4.82;2.53;;;;;;;11.75;39.59;99765.47;4359573;32;32280;-84
2022/02/06 13:41:14;;;;;;;3.75;2.47;;;;;;;11.53;40.06;99758.56;4359691;32;32425;-85
2022/02/06 13:43:42;;;;;;;5.20;2.90;;;;;;;11.88;39.13;99756.03;4366887;32;34516;-84
2022/02/06 13:46:14;;;;;;;4.87;2.50;;;;;;;10.94;41.33;99770.16;4367530;32;34824;-84
2022/02/06 13:48:46;;;;;;;;;;;;;;;11.02;41.33;99741.63;4341585;32;32632;-84
2022/02/06 13:51:14;;;;;;;4.25;2.47;;;;;;;11.18;41.23;99747.03;4358002;32;34047;-85
2022/02/06 13:53:54;;;;;;;4.25;2.90;;;;;;;11.43;40.99;99733.50;4354064;32;33398;-84
2022/02/06 13:56:22;;;;;;;4.45;2.58;;;;;;;10.99;41.63;99744.41;4359624;32;33458;-85
2022/02/06 13:59:01;;;;;;;5.60;2.83;;;;;;;10.56;43.01;99731.44;4356273;32;32529;-85
2022/02/06 14:01:47;;;;;;;5.10;2.58;;;;;;;10.29;43.86;99728.22;4358101;32;32686;-84
2022/02/06 14:04:35;;;;;;;3.75;2.47;;;;;;;10.89;43.12;99708.78;4347007;32;34619;-84
2022/02/06 14:07:14;;;;;;;5.72;2.67;;;;;;;10.60;43.19;99717.19;4352543;32;33858;-84
2022/02/06 14:09:49;;;;;;;5.68;3.60;;;;;;;10.30;43.87;99704.41;4356302;32;32015;-84
2022/02/06 14:12:21;;;;;;;3.28;2.60;;;;;;;10.14;44.27;99698.06;4356348;32;33636;-84
2022/02/06 14:14:58;;;;;;;6.18;3.22;;;;;;;9.96;45.06;99705.81;4365543;32;33480;-84
2022/02/06 14:17:35;;;;;;;5.90;3.37;;;;;;;10.73;43.19;99703.34;4368336;32;33052;-84
2022/02/06 14:20:17;;;;;;;4.10;2.55;;;;;;;10.21;44.13;99694.25;4357845;32;32377;-85
2022/02/06 14:22:49;;;;;;;3.25;2.40;;;;;;;10.14;44.33;99671.66;4344996;32;32035;-84
2022/02/06 14:25:32;;;;;;;4.47;3.22;;;;;;;10.75;42.89;99669.78;4343967;32;33605;-84
2022/02/06 14:28:18;;;;;;;5.32;2.45;;;;;;;10.80;42.81;99666.94;4331413;32;32668;-84
2022/02/06 14:30:47;;;;;;;6.30;3.50;;;;;;;10.68;43.10;99662.22;4362951;32;32944;-84
2022/02/06 14:33:17;;;;;;;8.88;4.15;;;;;;;10.46;43.25;99654.44;4368617;32;33605;-84
2022/02/06 14:35:56;;;;;;;7.55;3.35;;;;;;;10.52;43.71;99657.63;4366332;32;33253;-84
2022/02/06 14:38:38;;;;;;;4.90;3.03;;;;;;;10.86;42.41;99663.16;4342613;32;33782;-84
2022/02/06 14:41:40;;;;;;;4.03;2.67;;;;;;;10.98;42.43;99655.50;4367608;32;32878;-84
2022/02/06 14:44:08;;;;;;;4.65;3.67;;;;;;;10.75;42.94;99647.81;4364104;32;33149;-85
2022/02/06 14:46:36;;;;;;;6.40;3.50;;;;;;;10.84;42.41;99651.81;4371855;32;34157;-85
2022/02/06 14:49:07;;;;;;;4.65;2.60;;;;;;;10.83;42.51;99645.66;4361847;32;33385;-84
2022/02/06 14:51:37;;;;;;;6.35;3.25;;;;;;;11.35;41.59;99645.81;4372435;32;34099;-85